Time;durP1;ratioP1;P1;durP2;ratioP2;P2;SDS_P1;SDS_P2;PMS_P1;PMS_P2;Temp;Humidity;BMP_temperature;BMP_pressure;BME280_temperature;BME280_humidity;BME280_pressure;Samples;Min_cycle;Max_cycle;Signal;HPM_P1;HPM_P2
2021/12/29 00:00:13;;;;;;;18.77;17.67;;;10.00;85.60;;;;;;5031880;28;20993;-72
2021/12/29 00:02:40;;;;;;;17.57;16.47;;;9.90;85.90;;;;;;5032346;28;20476;-72
2021/12/29 00:05:08;;;;;;;18.87;17.67;;;10.00;85.80;;;;;;5032282;28;20460;-73
2021/12/29 00:07:35;;;;;;;19.33;17.87;;;10.00;85.40;;;;;;5032115;28;20799;-72
2021/12/29 00:10:03;;;;;;;20.40;19.20;;;10.00;84.80;;;;;;5032026;28;20479;-72
2021/12/29 00:12:34;;;;;;;18.53;17.33;;;10.10;84.70;;;;;;5032065;28;20479;-72
2021/12/29 00:15:01;;;;;;;18.20;17.30;;;10.00;84.70;;;;;;5032269;28;20821;-72
2021/12/29 00:17:30;;;;;;;18.20;17.07;;;10.00;84.70;;;;;;5031955;28;20538;-72
2021/12/29 00:19:56;;;;;;;18.07;16.93;;;10.00;84.80;;;;;;5031934;28;20575;-72
2021/12/29 00:22:23;;;;;;;18.23;17.13;;;10.00;84.80;;;;;;5031932;28;20838;-73
2021/12/29 00:24:50;;;;;;;17.80;16.80;;;9.90;84.90;;;;;;5031879;28;20479;-73
2021/12/29 00:27:17;;;;;;;19.33;18.10;;;10.00;84.60;;;;;;5031837;28;20460;-73
2021/12/29 00:29:44;;;;;;;18.57;17.30;;;10.00;84.80;;;;;;5031603;28;21054;-72
2021/12/29 00:32:11;;;;;;;19.03;17.90;;;10.10;84.60;;;;;;5031921;28;21004;-73
2021/12/29 00:34:39;;;;;;;18.47;17.37;;;10.00;84.30;;;;;;5031939;28;20456;-73
2021/12/29 00:37:06;;;;;;;17.70;16.80;;;10.10;84.50;;;;;;5032019;28;20997;-72
2021/12/29 00:39:33;;;;;;;17.80;16.90;;;10.10;84.80;;;;;;5031500;28;20478;-72
2021/12/29 00:42:01;;;;;;;17.50;16.50;;;10.10;84.70;;;;;;5031552;28;20475;-72
2021/12/29 00:44:30;;;;;;;19.00;17.70;;;10.10;84.70;;;;;;5031908;28;20491;-72
2021/12/29 00:46:57;;;;;;;18.10;17.00;;;10.00;85.10;;;;;;5034119;28;20466;-72
2021/12/29 00:49:30;;;;;;;18.80;17.67;;;10.00;85.30;;;;;;5035299;28;20507;-72
2021/12/29 00:51:59;;;;;;;17.93;16.83;;;10.10;85.70;;;;;;5035401;28;20466;-73
2021/12/29 00:54:26;;;;;;;17.50;16.50;;;10.00;85.50;;;;;;5035291;28;20822;-72
2021/12/29 00:56:53;;;;;;;17.63;16.53;;;10.00;85.90;;;;;;5035332;28;20456;-72
2021/12/29 00:59:21;;;;;;;17.13;16.10;;;10.00;86.00;;;;;;5034875;28;20829;-72
2021/12/29 01:01:49;;;;;;;16.50;15.70;;;9.90;86.30;;;;;;5035185;28;20455;-72
2021/12/29 01:04:16;;;;;;;17.90;16.70;;;9.90;86.30;;;;;;5035028;28;20452;-73
2021/12/29 01:06:43;;;;;;;18.60;17.50;;;9.90;86.70;;;;;;5035034;28;20462;-73
2021/12/29 01:09:11;;;;;;;18.10;16.50;;;9.80;87.20;;;;;;5034699;28;20486;-73
2021/12/29 01:11:39;;;;;;;16.80;15.90;;;9.80;87.30;;;;;;5034984;28;20547;-73
2021/12/29 01:14:07;;;;;;;16.47;15.50;;;9.80;87.40;;;;;;5035051;28;20448;-72
2021/12/29 01:16:38;;;;;;;16.83;15.93;;;9.80;87.30;;;;;;5034715;28;20468;-72
2021/12/29 01:19:11;;;;;;;16.97;15.97;;;9.80;87.40;;;;;;5034655;28;20472;-73
2021/12/29 01:21:40;;;;;;;17.13;16.00;;;9.80;87.50;;;;;;5034925;28;20479;-73
2021/12/29 01:24:08;;;;;;;16.67;15.67;;;9.80;87.30;;;;;;5034676;28;20475;-72
2021/12/29 01:26:37;;;;;;;17.40;16.17;;;9.80;87.40;;;;;;5042823;22;20515;-72
2021/12/29 01:29:04;;;;;;;17.20;16.30;;;9.80;87.80;;;;;;5034630;28;20836;-72
2021/12/29 01:31:31;;;;;;;16.90;15.90;;;9.80;87.70;;;;;;5034735;28;20547;-72
2021/12/29 01:33:59;;;;;;;16.40;15.70;;;9.80;87.60;;;;;;5034630;28;21010;-73
2021/12/29 01:36:26;;;;;;;17.20;16.17;;;9.80;87.90;;;;;;5034626;28;20462;-72
2021/12/29 01:38:53;;;;;;;17.07;16.17;;;9.80;87.70;;;;;;5034500;28;20476;-73
2021/12/29 01:41:21;;;;;;;16.70;15.80;;;9.80;87.50;;;;;;5034218;28;20550;-72
2021/12/29 01:43:49;;;;;;;16.73;15.77;;;9.90;87.40;;;;;;5034504;28;20490;-72
2021/12/29 01:46:16;;;;;;;17.00;16.10;;;9.90;87.00;;;;;;5034171;28;20458;-72
2021/12/29 01:48:43;;;;;;;17.50;16.60;;;10.00;87.00;;;;;;5034175;28;20563;-73
2021/12/29 01:51:11;;;;;;;17.33;16.43;;;9.90;87.10;;;;;;5034171;28;21004;-73
2021/12/29 01:53:46;;;;;;;17.00;16.10;;;9.90;87.20;;;;;;5034328;28;20455;-73
2021/12/29 01:56:14;;;;;;;16.93;15.90;;;10.00;86.80;;;;;;5034235;28;20466;-72
2021/12/29 01:58:41;;;;;;;17.03;16.10;;;9.90;86.70;;;;;;5032946;28;20476;-73
2021/12/29 02:01:10;;;;;;;17.30;16.40;;;10.00;86.40;;;;;;5034013;28;20487;-73
2021/12/29 02:03:36;;;;;;;17.43;16.43;;;9.90;87.10;;;;;;5033950;28;20486;-73
2021/12/29 02:06:03;;;;;;;17.77;16.87;;;10.00;87.00;;;;;;5033913;28;20458;-72
2021/12/29 02:08:32;;;;;;;16.43;15.60;;;10.00;87.00;;;;;;5033851;28;20896;-72
2021/12/29 02:11:00;;;;;;;16.13;15.43;;;10.10;86.40;;;;;;5033851;28;20448;-73
2021/12/29 02:13:28;;;;;;;16.40;15.50;;;10.10;86.40;;;;;;5033806;28;20444;-73
2021/12/29 02:15:55;;;;;;;17.20;16.40;;;10.00;86.60;;;;;;5033794;28;20456;-72
2021/12/29 02:18:25;;;;;;;17.43;16.53;;;9.90;86.70;;;;;;5033577;28;20547;-73
2021/12/29 02:20:55;;;;;;;16.93;16.13;;;9.90;86.80;;;;;;5033670;28;20947;-72
2021/12/29 02:23:29;;;;;;;16.33;15.60;;;9.90;87.00;;;;;;5033633;28;20487;-72
2021/12/29 02:25:58;;;;;;;16.90;16.10;;;10.00;86.70;;;;;;5033515;28;20463;-72
2021/12/29 02:28:28;;;;;;;17.10;16.20;;;9.90;86.70;;;;;;5033455;28;20555;-73
2021/12/29 02:30:58;;;;;;;17.10;16.20;;;9.90;86.20;;;;;;5033476;28;20463;-73
2021/12/29 02:33:25;;;;;;;16.97;16.13;;;10.00;85.80;;;;;;5033517;28;20444;-72
2021/12/29 02:35:54;;;;;;;16.77;16.00;;;10.00;85.70;;;;;;5033320;28;20533;-72
2021/12/29 02:38:25;;;;;;;17.60;16.60;;;10.10;85.20;;;;;;5033100;28;20535;-72
2021/12/29 02:40:55;;;;;;;16.93;16.13;;;10.10;85.00;;;;;;5033047;28;20460;-73
2021/12/29 02:43:23;;;;;;;16.80;16.00;;;10.00;84.60;;;;;;5033265;28;20560;-73
2021/12/29 02:45:58;;;;;;;17.57;16.73;;;10.10;84.20;;;;;;5033079;28;20777;-73
2021/12/29 02:48:27;;;;;;;17.60;16.80;;;10.10;84.00;;;;;;5032971;28;20932;-73
2021/12/29 02:50:56;;;;;;;17.80;16.90;;;10.00;84.50;;;;;;5032973;28;20463;-73
2021/12/29 02:53:24;;;;;;;16.87;16.07;;;10.00;84.10;;;;;;5033131;28;20455;-73
2021/12/29 02:55:52;;;;;;;17.23;16.23;;;10.10;84.00;;;;;;5033081;28;20468;-72
2021/12/29 02:58:20;;;;;;;17.10;16.30;;;10.10;83.80;;;;;;5032973;28;20495;-73
2021/12/29 03:00:47;;;;;;;17.30;16.50;;;10.10;83.80;;;;;;5032974;28;20543;-73
2021/12/29 03:03:16;;;;;;;17.50;16.60;;;10.20;83.30;;;;;;5032855;28;20484;-72
2021/12/29 03:05:43;;;;;;;17.60;16.70;;;10.20;83.20;;;;;;5032901;28;20464;-72
2021/12/29 03:08:12;;;;;;;17.50;16.70;;;10.10;83.20;;;;;;5032792;28;20452;-72
2021/12/29 03:10:39;;;;;;;17.90;16.90;;;10.10;83.30;;;;;;5032814;28;20574;-72
2021/12/29 03:13:07;;;;;;;17.43;16.43;;;10.20;82.90;;;;;;5032922;28;20452;-72
2021/12/29 03:15:34;;;;;;;17.57;16.73;;;10.20;82.40;;;;;;5032770;28;20474;-73
2021/12/29 03:18:01;;;;;;;17.63;16.80;;;10.20;82.50;;;;;;5032708;28;20463;-73
2021/12/29 03:20:28;;;;;;;17.60;16.73;;;10.20;82.30;;;;;;5032408;28;20475;-73
2021/12/29 03:22:55;;;;;;;19.00;18.00;;;10.20;82.70;;;;;;5032615;28;20833;-73
2021/12/29 03:25:24;;;;;;;18.17;17.17;;;10.20;82.50;;;;;;5032575;28;20464;-72
2021/12/29 03:27:52;;;;;;;18.07;17.17;;;10.30;82.50;;;;;;5032590;28;20459;-73
2021/12/29 03:30:18;;;;;;;18.10;17.30;;;10.30;82.60;;;;;;5032285;28;21063;-73
2021/12/29 03:32:51;;;;;;;17.50;16.70;;;10.30;82.50;;;;;;5032514;28;20899;-73
2021/12/29 03:35:20;;;;;;;17.40;16.60;;;10.30;82.20;;;;;;5032742;28;20466;-72
2021/12/29 03:37:47;;;;;;;17.50;16.70;;;10.30;82.50;;;;;;5032590;28;20451;-72
2021/12/29 03:40:14;;;;;;;18.30;17.40;;;10.20;82.70;;;;;;5032136;28;20912;-73
2021/12/29 03:42:42;;;;;;;17.93;16.93;;;10.30;82.90;;;;;;5032475;28;20538;-73
2021/12/29 03:45:10;;;;;;;17.80;16.90;;;10.30;82.90;;;;;;5032328;28;20543;-73
2021/12/29 03:47:37;;;;;;;17.50;16.70;;;10.30;83.10;;;;;;5032515;28;20456;-73
2021/12/29 03:50:05;;;;;;;17.30;16.50;;;10.30;83.10;;;;;;5032088;28;20472;-73
2021/12/29 03:52:31;;;;;;;18.40;17.50;;;10.30;83.00;;;;;;5032541;28;20890;-73
2021/12/29 03:54:58;;;;;;;17.67;16.70;;;10.40;83.10;;;;;;5032290;28;20480;-73
2021/12/29 03:57:25;;;;;;;17.00;16.30;;;10.30;83.80;;;;;;5032270;28;20452;-73
2021/12/29 03:59:54;;;;;;;17.37;16.57;;;10.30;83.70;;;;;;5031931;28;20478;-72
2021/12/29 04:02:20;;;;;;;18.77;17.77;;;10.30;83.80;;;;;;5032282;28;20813;-72
2021/12/29 04:04:48;;;;;;;18.07;17.17;;;10.30;84.10;;;;;;5032107;28;20992;-73
2021/12/29 04:07:15;;;;;;;18.10;17.00;;;10.40;84.30;;;;;;5032157;28;20459;-72
2021/12/29 04:09:42;;;;;;;18.10;17.30;;;10.30;84.80;;;;;;5032124;28;20476;-73
2021/12/29 04:12:09;;;;;;;17.03;16.23;;;10.30;84.90;;;;;;5032151;28;20452;-73
2021/12/29 04:14:36;;;;;;;17.40;16.50;;;10.20;85.40;;;;;;5032282;28;20466;-73
2021/12/29 04:17:10;;;;;;;19.33;18.43;;;10.20;85.60;;;;;;5032180;28;20814;-73
2021/12/29 04:20:54;;;;;;;17.90;17.10;;;10.20;85.80;;;;;;5031952;28;20475;-73
2021/12/29 04:22:28;;;;;;;16.77;15.77;;;10.20;86.20;;;;;;5035363;28;20455;-73
2021/12/29 04:24:55;;;;;;;17.07;16.27;;;10.20;86.90;;;;;;5035597;28;20479;-73
2021/12/29 04:27:24;;;;;;;18.37;17.20;;;10.20;89.40;;;;;;5035929;28;20470;-72
2021/12/29 04:29:51;;;;;;;18.03;17.23;;;10.10;89.60;;;;;;5035631;28;20961;-72
2021/12/29 04:32:19;;;;;;;20.40;19.30;;;10.10;89.80;;;;;;5035903;28;20554;-72
2021/12/29 04:34:46;;;;;;;17.77;16.97;;;10.00;89.50;;;;;;5035895;28;20562;-73
2021/12/29 04:37:13;;;;;;;18.00;17.10;;;10.00;89.50;;;;;;5035562;28;20452;-72
2021/12/29 04:39:40;;;;;;;18.53;17.67;;;10.10;89.40;;;;;;5035322;28;20486;-72
2021/12/29 04:42:07;;;;;;;18.23;17.43;;;10.00;89.70;;;;;;5035379;28;20464;-72
2021/12/29 04:44:34;;;;;;;18.03;17.13;;;10.00;90.20;;;;;;5035414;28;20502;-72
2021/12/29 04:47:01;;;;;;;18.93;18.03;;;10.10;90.10;;;;;;5035418;28;20464;-72
2021/12/29 04:49:39;;;;;;;18.03;17.03;;;10.00;90.20;;;;;;5035028;28;20507;-72
2021/12/29 04:52:07;;;;;;;19.27;18.37;;;10.00;90.50;;;;;;5035486;28;20462;-72
2021/12/29 04:54:34;;;;;;;18.53;17.63;;;9.90;91.00;;;;;;5029500;22;20500;-72
2021/12/29 04:57:01;;;;;;;18.47;17.50;;;9.90;91.30;;;;;;5015811;28;20457;-73
2021/12/29 04:59:28;;;;;;;18.03;17.13;;;9.90;91.60;;;;;;5014982;28;20477;-72
2021/12/29 05:01:56;;;;;;;18.70;17.80;;;9.70;92.50;;;;;;5015604;28;20549;-73
2021/12/29 05:04:30;;;;;;;18.20;17.40;;;9.60;92.80;;;;;;5015356;28;20487;-73
2021/12/29 05:09:43;;;;;;;18.37;17.57;;;9.70;92.70;;;;;;5015139;28;20464;-73
2021/12/29 05:12:10;;;;;;;296.27;38.53;;;9.70;93.20;;;;;;5015419;28;21009;-72
2021/12/29 05:14:38;;;;;;;20.13;18.80;;;9.70;95.40;;;;;;5015274;28;20863;-73
2021/12/29 05:17:05;;;;;;;20.23;19.13;;;9.70;95.60;;;;;;5015283;28;20832;-73
2021/12/29 05:19:32;;;;;;;19.10;18.10;;;9.60;95.20;;;;;;5014791;28;20523;-73
2021/12/29 05:22:01;;;;;;;17.30;16.50;;;9.60;95.10;;;;;;5015201;28;20535;-73
2021/12/29 05:24:28;;;;;;;17.40;16.50;;;9.60;94.70;;;;;;5014951;28;20484;-72
2021/12/29 05:26:55;;;;;;;18.20;17.30;;;9.50;94.70;;;;;;5014927;28;20539;-72
2021/12/29 05:29:21;;;;;;;17.77;16.87;;;9.60;94.30;;;;;;5014719;28;20501;-72
2021/12/29 05:31:49;;;;;;;17.97;16.77;;;9.60;94.60;;;;;;5014644;28;20461;-72
2021/12/29 05:34:16;;;;;;;17.50;16.60;;;9.60;94.40;;;;;;5014780;28;20524;-72
2021/12/29 05:36:43;;;;;;;18.67;17.77;;;9.50;94.30;;;;;;5014723;28;20455;-72
2021/12/29 05:39:11;;;;;;;19.50;18.50;;;9.50;94.30;;;;;;5014573;28;20939;-72
2021/12/29 05:41:38;;;;;;;19.23;18.23;;;9.50;94.10;;;;;;5014369;28;20465;-72
2021/12/29 05:44:05;;;;;;;17.70;16.60;;;9.50;94.40;;;;;;5014658;28;20481;-72
2021/12/29 05:46:33;;;;;;;17.80;16.90;;;9.50;94.00;;;;;;5014485;28;20453;-72
2021/12/29 05:49:00;;;;;;;18.20;17.20;;;9.60;93.90;;;;;;5014468;28;21088;-72
2021/12/29 05:51:27;;;;;;;19.00;18.10;;;9.60;93.90;;;;;;5014485;28;20459;-72
2021/12/29 05:53:54;;;;;;;18.33;17.43;;;9.50;94.00;;;;;;5014277;28;20460;-72
2021/12/29 05:56:22;;;;;;;18.07;17.17;;;9.50;94.00;;;;;;5014384;28;20811;-72
2021/12/29 05:58:49;;;;;;;17.20;16.40;;;9.40;94.30;;;;;;5014447;28;20560;-72
2021/12/29 06:01:16;;;;;;;17.30;16.40;;;9.40;94.40;;;;;;5014292;28;20458;-72
2021/12/29 06:03:43;;;;;;;19.43;18.23;;;9.40;94.70;;;;;;5014229;28;20575;-72
2021/12/29 06:06:10;;;;;;;18.93;18.03;;;9.40;94.60;;;;;;5014100;28;20842;-73
2021/12/29 06:08:37;;;;;;;18.87;17.87;;;9.50;94.50;;;;;;5014053;28;20480;-73
2021/12/29 06:11:04;;;;;;;19.07;17.97;;;9.50;94.40;;;;;;5013969;28;20460;-72
2021/12/29 06:13:32;;;;;;;19.33;18.03;;;9.40;94.40;;;;;;5013964;28;20989;-73
2021/12/29 06:15:59;;;;;;;18.93;17.83;;;9.40;95.20;;;;;;5014041;28;20539;-73
2021/12/29 06:18:26;;;;;;;17.27;16.37;;;9.40;95.40;;;;;;5013878;28;20552;-72
2021/12/29 06:20:53;;;;;;;19.00;18.00;;;9.40;95.20;;;;;;5013821;28;20453;-73
2021/12/29 06:23:20;;;;;;;18.77;17.77;;;9.40;95.20;;;;;;5013922;28;20459;-73
2021/12/29 06:25:47;;;;;;;19.63;18.53;;;9.40;95.00;;;;;;5013865;28;20572;-73
2021/12/29 06:28:15;;;;;;;17.40;16.40;;;9.50;94.80;;;;;;5013648;28;20531;-73
2021/12/29 06:30:43;;;;;;;17.63;16.73;;;9.50;94.50;;;;;;5013613;28;20460;-73
2021/12/29 06:33:10;;;;;;;16.50;15.70;;;9.60;93.90;;;;;;5013913;28;21211;-73
2021/12/29 06:35:37;;;;;;;18.90;17.80;;;9.50;94.10;;;;;;5013690;28;20459;-73
2021/12/29 06:38:04;;;;;;;18.40;17.50;;;9.50;94.30;;;;;;5013665;28;20885;-73
2021/12/29 06:40:31;;;;;;;19.10;17.93;;;9.40;94.50;;;;;;5013243;28;21030;-72
2021/12/29 06:42:58;;;;;;;19.27;18.17;;;9.40;94.70;;;;;;5013521;28;20484;-72
2021/12/29 06:45:26;;;;;;;18.80;17.70;;;9.50;94.20;;;;;;5013238;28;20487;-72
2021/12/29 06:47:55;;;;;;;18.73;17.40;;;9.50;94.00;;;;;;5013461;28;20476;-72
2021/12/29 06:50:21;;;;;;;18.03;16.83;;;9.40;94.40;;;;;;5013151;28;20989;-72
2021/12/29 06:52:48;;;;;;;17.80;16.90;;;9.40;94.40;;;;;;5013379;28;20464;-73
2021/12/29 06:55:15;;;;;;;18.93;17.93;;;9.40;94.70;;;;;;5013311;28;20468;-73
2021/12/29 06:57:42;;;;;;;18.43;17.13;;;9.30;94.80;;;;;;5013392;28;20543;-73
2021/12/29 07:00:10;;;;;;;17.27;16.37;;;9.30;95.00;;;;;;5013048;28;20477;-73
2021/12/29 07:02:37;;;;;;;19.10;18.20;;;9.30;95.00;;;;;;5013301;28;20449;-73
2021/12/29 07:05:06;;;;;;;19.30;18.20;;;9.30;95.60;;;;;;5013104;28;20473;-73
2021/12/29 07:07:33;;;;;;;17.57;16.67;;;9.40;95.30;;;;;;5013140;28;20453;-73
2021/12/29 07:10:00;;;;;;;18.53;17.43;;;9.50;94.80;;;;;;5012939;28;20549;-73
2021/12/29 07:12:27;;;;;;;17.43;16.57;;;9.40;94.50;;;;;;5013330;28;20453;-72
2021/12/29 07:14:54;;;;;;;19.20;18.20;;;9.40;94.20;;;;;;5013154;28;20453;-73
2021/12/29 07:17:20;;;;;;;17.30;16.50;;;9.40;94.10;;;;;;5013055;28;20464;-73
2021/12/29 07:19:47;;;;;;;18.60;17.40;;;9.50;94.50;;;;;;5012553;28;20480;-73
2021/12/29 07:22:16;;;;;;;17.80;16.80;;;9.50;94.10;;;;;;5013093;28;20946;-73
2021/12/29 07:24:43;;;;;;;20.03;18.83;;;9.50;94.10;;;;;;5013140;28;20491;-72
2021/12/29 07:27:10;;;;;;;21.50;20.23;;;9.50;94.20;;;;;;5013045;28;20836;-73
2021/12/29 07:29:37;;;;;;;18.13;17.23;;;9.40;94.40;;;;;;5012623;28;20560;-73
2021/12/29 07:32:04;;;;;;;19.50;18.50;;;9.40;94.60;;;;;;5013017;28;20449;-73
2021/12/29 07:34:31;;;;;;;18.90;17.90;;;9.40;95.20;;;;;;5012713;28;20449;-72
2021/12/29 07:36:58;;;;;;;19.27;18.27;;;9.40;95.60;;;;;;5012883;28;20457;-73
2021/12/29 07:39:27;;;;;;;19.50;18.60;;;9.40;95.50;;;;;;5012682;28;20487;-73
2021/12/29 07:41:54;;;;;;;19.53;18.30;;;9.50;95.10;;;;;;5012691;28;21037;-73
2021/12/29 07:44:22;;;;;;;18.50;17.30;;;9.40;95.30;;;;;;5012729;28;20477;-73
2021/12/29 07:46:53;;;;;;;21.47;20.37;;;9.40;95.20;;;;;;5012507;28;20488;-73
2021/12/29 07:49:20;;;;;;;770.90;101.43;;;9.40;95.80;;;;;;5012519;28;20476;-73
2021/12/29 07:51:47;;;;;;;17.87;16.90;;;9.50;98.30;;;;;;5012673;28;20461;-73
2021/12/29 07:54:14;;;;;;;17.57;16.57;;;9.40;97.20;;;;;;5012653;28;20468;-72
2021/12/29 07:56:43;;;;;;;18.40;17.40;;;9.40;96.90;;;;;;5016514;28;20535;-72
2021/12/29 07:59:10;;;;;;;18.53;17.53;;;9.40;96.50;;;;;;5016422;28;20480;-72
2021/12/29 08:01:37;;;;;;;135.80;30.73;;;9.50;96.40;;;;;;5016486;28;20460;-73
2021/12/29 08:04:04;;;;;;;22.60;21.20;;;9.50;97.20;;;;;;5016595;28;20548;-73
2021/12/29 08:06:31;;;;;;;23.60;22.00;;;9.40;97.40;;;;;;5016458;28;20504;-73
2021/12/29 08:08:58;;;;;;;21.47;19.83;;;9.60;96.70;;;;;;5016388;28;20480;-73
2021/12/29 08:11:25;;;;;;;20.37;18.70;;;9.60;96.40;;;;;;5016337;28;20456;-73
2021/12/29 08:13:54;;;;;;;20.27;18.97;;;9.50;96.70;;;;;;5016396;28;20463;-73
2021/12/29 08:16:21;;;;;;;18.40;17.30;;;9.60;96.40;;;;;;5016398;28;20456;-72
2021/12/29 08:18:49;;;;;;;19.13;17.27;;;9.70;96.20;;;;;;5016142;28;20479;-72
2021/12/29 08:21:16;;;;;;;20.73;19.57;;;9.80;96.00;;;;;;5016207;28;20480;-73
2021/12/29 08:23:43;;;;;;;19.00;17.93;;;9.80;96.60;;;;;;5016117;28;20488;-73
2021/12/29 08:26:10;;;;;;;17.63;16.73;;;9.90;95.70;;;;;;5015937;28;21107;-73
2021/12/29 08:28:37;;;;;;;17.43;16.53;;;9.90;94.60;;;;;;5015991;28;21044;-73
2021/12/29 08:31:06;;;;;;;18.83;17.73;;;9.90;94.50;;;;;;5016007;28;20452;-73
2021/12/29 08:33:37;;;;;;;18.13;17.20;;;10.10;94.10;;;;;;5016033;28;20968;-73
2021/12/29 08:36:05;;;;;;;18.20;17.23;;;10.10;94.40;;;;;;5015977;28;20452;-73
2021/12/29 08:38:32;;;;;;;17.13;16.33;;;10.20;94.40;;;;;;5015915;28;20532;-72
2021/12/29 08:40:59;;;;;;;18.67;17.60;;;10.20;93.70;;;;;;5015565;28;20463;-73
2021/12/29 08:43:26;;;;;;;17.43;16.60;;;10.30;93.50;;;;;;5015903;28;20531;-73
2021/12/29 08:45:53;;;;;;;18.30;17.50;;;10.40;93.10;;;;;;5015537;28;20563;-73
2021/12/29 08:48:21;;;;;;;19.10;18.10;;;10.40;92.60;;;;;;5015717;28;20952;-73
2021/12/29 08:50:48;;;;;;;19.73;18.73;;;10.40;92.50;;;;;;5015581;28;20463;-73
2021/12/29 08:53:15;;;;;;;20.53;19.47;;;10.50;92.60;;;;;;5015532;28;20460;-73
2021/12/29 08:55:46;;;;;;;18.43;17.43;;;10.70;91.60;;;;;;5015611;28;20461;-73
2021/12/29 08:58:14;;;;;;;18.13;17.13;;;10.70;90.70;;;;;;5015585;28;20453;-73
2021/12/29 09:00:41;;;;;;;20.40;19.30;;;10.70;90.40;;;;;;5015522;28;20455;-72
2021/12/29 09:03:08;;;;;;;20.10;18.90;;;10.60;90.10;;;;;;5015564;28;20822;-73
2021/12/29 09:05:37;;;;;;;19.77;18.77;;;10.70;89.70;;;;;;5015433;28;20480;-73
2021/12/29 09:08:04;;;;;;;19.53;18.43;;;10.70;89.40;;;;;;5014759;28;20459;-72
2021/12/29 09:10:32;;;;;;;18.00;17.00;;;10.80;89.50;;;;;;5015223;28;20478;-73
2021/12/29 09:12:58;;;;;;;18.43;17.60;;;10.80;89.00;;;;;;5015297;28;20489;-73
2021/12/29 09:15:26;;;;;;;17.80;16.90;;;10.80;89.00;;;;;;5015202;28;20810;-73
2021/12/29 09:17:53;;;;;;;17.73;16.80;;;10.90;88.90;;;;;;5015289;28;20814;-72
2021/12/29 09:20:29;;;;;;;20.10;18.77;;;11.00;88.40;;;;;;5014932;28;20469;-73
2021/12/29 09:23:00;;;;;;;20.53;19.33;;;11.00;88.00;;;;;;5015286;28;20471;-73
2021/12/29 09:25:28;;;;;;;18.87;17.90;;;11.00;87.70;;;;;;5014862;28;20476;-72
2021/12/29 09:27:55;;;;;;;19.97;18.87;;;11.00;88.00;;;;;;5015067;28;20476;-73
2021/12/29 09:30:25;;;;;;;18.33;17.27;;;11.00;87.90;;;;;;5014824;28;20477;-73
2021/12/29 09:32:53;;;;;;;18.30;17.40;;;11.10;87.80;;;;;;5014942;28;20464;-72
2021/12/29 09:35:21;;;;;;;17.80;16.93;;;11.20;87.10;;;;;;5014822;28;20954;-72
2021/12/29 09:37:48;;;;;;;19.60;18.50;;;11.30;86.70;;;;;;5014858;28;20842;-73
2021/12/29 09:40:18;;;;;;;20.07;19.07;;;11.30;86.60;;;;;;5014489;28;20487;-72
2021/12/29 09:42:46;;;;;;;18.17;17.17;;;11.20;86.80;;;;;;5014706;28;20493;-72
2021/12/29 09:45:13;;;;;;;19.20;18.20;;;11.20;86.60;;;;;;5014575;28;20468;-73
2021/12/29 09:47:41;;;;;;;22.37;21.17;;;11.10;87.00;;;;;;5014502;28;20543;-73
2021/12/29 09:50:12;;;;;;;20.03;18.90;;;11.20;86.70;;;;;;5014263;28;20492;-72
2021/12/29 09:52:40;;;;;;;21.07;19.80;;;11.30;86.10;;;;;;5014750;28;20453;-72
2021/12/29 09:55:10;;;;;;;20.80;19.70;;;11.30;86.60;;;;;;5014314;28;20511;-73
2021/12/29 09:57:44;;;;;;;20.03;18.83;;;11.30;87.00;;;;;;5014530;28;20532;-73
2021/12/29 10:00:20;;;;;;;20.20;19.10;;;11.40;86.60;;;;;;5014080;28;20989;-73
2021/12/29 10:02:47;;;;;;;20.00;19.00;;;11.50;86.40;;;;;;5014531;28;20464;-73
2021/12/29 10:05:16;;;;;;;20.50;19.30;;;11.60;85.90;;;;;;5014242;28;20915;-73
2021/12/29 10:07:43;;;;;;;20.00;19.00;;;11.70;85.60;;;;;;5014185;28;20460;-73
2021/12/29 10:10:18;;;;;;;19.53;18.43;;;11.80;85.20;;;;;;5013894;28;20487;-73
2021/12/29 10:12:47;;;;;;;20.70;19.60;;;11.70;85.70;;;;;;5014218;28;20461;-73
2021/12/29 10:15:14;;;;;;;22.40;20.80;;;11.70;85.90;;;;;;5014086;28;20441;-73
2021/12/29 10:17:42;;;;;;;22.40;20.97;;;11.70;86.10;;;;;;5013931;28;20457;-73
2021/12/29 10:20:12;;;;;;;21.63;20.50;;;11.70;85.90;;;;;;5013092;28;20556;-73
2021/12/29 10:22:40;;;;;;;21.37;20.17;;;11.70;85.90;;;;;;5014104;28;20535;-73
2021/12/29 10:25:08;;;;;;;19.80;18.70;;;11.80;85.80;;;;;;5014015;28;21101;-73
2021/12/29 10:27:36;;;;;;;20.63;19.40;;;11.90;85.90;;;;;;5013818;28;20540;-73
2021/12/29 10:30:18;;;;;;;20.90;19.70;;;11.80;85.80;;;;;;5013628;28;20483;-73
2021/12/29 10:32:45;;;;;;;22.60;21.17;;;11.80;85.40;;;;;;5014020;28;20515;-73
2021/12/29 10:35:23;;;;;;;20.30;19.20;;;11.80;85.50;;;;;;5013810;28;20452;-73
2021/12/29 10:37:52;;;;;;;21.63;20.40;;;11.80;85.70;;;;;;5013689;28;20448;-73
2021/12/29 10:40:27;;;;;;;22.43;21.27;;;11.70;85.70;;;;;;5013349;28;20560;-73
2021/12/29 10:42:55;;;;;;;20.93;19.73;;;11.90;85.70;;;;;;5013719;28;20459;-73
2021/12/29 10:45:32;;;;;;;21.10;20.00;;;11.90;85.70;;;;;;5013626;28;20473;-73
2021/12/29 10:47:59;;;;;;;21.57;20.27;;;12.00;85.10;;;;;;5013304;28;20474;-73
2021/12/29 10:50:27;;;;;;;22.97;21.77;;;12.10;84.10;;;;;;5013247;28;20477;-73
2021/12/29 10:52:56;;;;;;;23.30;21.70;;;12.10;83.70;;;;;;5013410;28;20858;-73
2021/12/29 10:55:31;;;;;;;21.60;20.40;;;12.00;84.00;;;;;;5013417;28;20536;-73
2021/12/29 10:58:05;;;;;;;22.60;20.90;;;12.10;83.50;;;;;;5013497;28;20776;-73
2021/12/29 11:00:35;;;;;;;23.17;21.77;;;12.10;83.60;;;;;;5013134;28;21003;-73
2021/12/29 11:03:10;;;;;;;22.40;21.10;;;12.20;82.20;;;;;;5013448;28;20531;-73
2021/12/29 11:05:39;;;;;;;21.10;19.90;;;12.20;82.50;;;;;;5013151;28;20919;-73
2021/12/29 11:08:07;;;;;;;20.30;19.10;;;12.10;82.30;;;;;;5013089;28;20539;-73
2021/12/29 11:10:34;;;;;;;22.47;21.10;;;12.10;82.40;;;;;;5012805;28;20915;-73
2021/12/29 11:13:01;;;;;;;22.03;21.03;;;12.10;82.50;;;;;;5012980;28;20534;-73
2021/12/29 11:15:30;;;;;;;20.47;19.47;;;12.10;83.40;;;;;;5013103;28;20553;-73
2021/12/29 11:18:04;;;;;;;22.57;21.27;;;12.10;82.90;;;;;;5012926;28;20830;-73
2021/12/29 11:20:32;;;;;;;21.30;20.00;;;12.10;82.80;;;;;;5012890;28;20910;-73
2021/12/29 11:23:10;;;;;;;23.07;21.57;;;12.20;82.70;;;;;;5012998;28;20448;-73
2021/12/29 11:25:38;;;;;;;21.17;19.70;;;12.10;83.00;;;;;;5012927;28;20487;-73
2021/12/29 11:28:05;;;;;;;22.60;21.10;;;12.10;82.50;;;;;;5012893;28;20488;-73
2021/12/29 11:30:34;;;;;;;20.80;19.67;;;12.20;82.30;;;;;;5012476;28;20473;-73
2021/12/29 11:33:09;;;;;;;20.47;19.17;;;12.20;82.20;;;;;;5012913;28;20463;-73
2021/12/29 11:35:40;;;;;;;20.63;19.43;;;12.20;82.20;;;;;;5012922;28;20528;-73
2021/12/29 11:38:08;;;;;;;20.80;19.60;;;12.30;81.70;;;;;;5012793;28;20467;-73
2021/12/29 11:40:39;;;;;;;21.77;20.33;;;12.20;81.80;;;;;;5012437;28;20563;-73
2021/12/29 11:43:07;;;;;;;21.63;20.20;;;12.10;81.70;;;;;;5012925;28;20461;-73
2021/12/29 11:45:34;;;;;;;21.60;20.30;;;12.10;82.60;;;;;;5012558;28;21002;-73
2021/12/29 11:48:01;;;;;;;21.80;20.50;;;12.00;82.80;;;;;;5012603;28;20455;-73
2021/12/29 11:50:34;;;;;;;20.63;19.17;;;11.90;82.80;;;;;;5012326;28;20504;-73
2021/12/29 11:53:09;;;;;;;20.77;19.53;;;11.90;82.90;;;;;;5012670;28;20465;-73
2021/12/29 11:55:42;;;;;;;20.30;19.20;;;12.00;82.70;;;;;;5012862;28;20449;-73
2021/12/29 11:58:12;;;;;;;19.87;18.60;;;11.90;82.80;;;;;;5012722;28;20453;-73
2021/12/29 12:00:39;;;;;;;20.00;18.90;;;11.90;83.00;;;;;;5012253;28;20997;-73
2021/12/29 12:03:09;;;;;;;21.67;20.47;;;11.90;82.80;;;;;;5012577;28;20461;-73
2021/12/29 12:05:39;;;;;;;20.27;19.07;;;11.90;83.10;;;;;;5012492;28;21017;-73
2021/12/29 12:08:07;;;;;;;20.20;19.10;;;11.90;83.10;;;;;;5012553;28;20456;-73
2021/12/29 12:10:38;;;;;;;20.10;18.80;;;11.90;83.10;;;;;;5012458;28;20473;-73
2021/12/29 12:13:19;;;;;;;21.73;20.40;;;12.00;83.30;;;;;;5012697;28;20461;-73
2021/12/29 12:15:46;;;;;;;19.83;18.83;;;12.10;83.40;;;;;;5012413;28;20457;-73
2021/12/29 12:18:13;;;;;;;22.60;21.07;;;12.30;83.10;;;;;;5012331;28;20523;-73
2021/12/29 12:20:44;;;;;;;23.97;22.47;;;12.40;82.60;;;;;;5012246;28;20453;-73
2021/12/29 12:23:22;;;;;;;23.07;21.67;;;12.60;81.80;;;;;;5012522;28;20897;-73
2021/12/29 12:25:49;;;;;;;21.80;20.50;;;12.60;81.20;;;;;;5012300;28;20563;-73
2021/12/29 12:28:17;;;;;;;21.40;20.00;;;12.70;81.20;;;;;;5012162;28;20457;-73
2021/12/29 12:30:47;;;;;;;21.97;20.67;;;12.70;81.00;;;;;;5012158;28;20452;-73
2021/12/29 12:33:17;;;;;;;22.27;20.90;;;12.70;81.60;;;;;;5012529;28;20457;-73
2021/12/29 12:35:48;;;;;;;22.13;20.83;;;12.70;81.30;;;;;;5012441;28;20811;-73
2021/12/29 12:38:19;;;;;;;22.33;20.73;;;12.70;81.20;;;;;;5012246;28;20457;-73